Time;durP1;ratioP1;P1;durP2;ratioP2;P2;SDS_P1;SDS_P2;PMS_P1;PMS_P2;Temp;Humidity;BMP_temperature;BMP_pressure;BME280_temperature;BME280_humidity;BME280_pressure;Samples;Min_cycle;Max_cycle;Signal;HPM_P1;HPM_P2
2023/05/12 00:00:37;;;;;;;9.20;4.20;;;;;;;11.96;45.22;101272.09;105140;1277;98146;-81
2023/05/12 00:03:23;;;;;;;6.50;4.00;;;;;;;11.95;45.04;101272.98;105180;1276;98001;-81
2023/05/12 00:06:08;;;;;;;6.30;3.70;;;;;;;11.93;45.08;101277.48;105178;1276;97899;-81
2023/05/12 00:08:53;;;;;;;9.70;4.50;;;;;;;11.91;45.12;101279.30;105072;1277;101387;-81
2023/05/12 00:11:39;;;;;;;8.70;4.30;;;;;;;11.89;44.99;101277.40;105027;1280;100372;-81
2023/05/12 00:14:25;;;;;;;6.70;3.70;;;;;;;11.87;45.34;101276.58;105128;1279;99031;-81
2023/05/12 00:17:10;;;;;;;4.70;3.80;;;;;;;11.86;45.32;101277.40;105256;1279;98103;-82
2023/05/12 00:19:56;;;;;;;8.20;4.40;;;;;;;11.86;45.35;101281.02;105219;1279;98379;-81
2023/05/12 00:22:41;;;;;;;5.80;3.70;;;;;;;11.83;45.52;101279.31;105191;1276;102104;-81
2023/05/12 00:25:27;;;;;;;7.30;3.50;;;;;;;11.79;45.36;101279.08;105122;1279;99130;-81
2023/05/12 00:28:12;;;;;;;12.70;4.80;;;;;;;11.74;45.50;101278.66;105191;1276;97938;-81
2023/05/12 00:31:02;;;;;;;5.10;3.70;;;;;;;11.70;45.45;101285.59;104995;1282;98105;-81
2023/05/12 00:33:48;;;;;;;5.40;3.80;;;;;;;11.67;45.60;101285.88;105264;1276;98523;-81
2023/05/12 00:36:33;;;;;;;9.10;3.80;;;;;;;11.65;45.53;101284.78;105169;1275;101563;-81
2023/05/12 00:39:18;;;;;;;8.70;4.20;;;;;;;11.63;45.70;101285.92;105030;1276;99145;-80
2023/05/12 00:42:04;;;;;;;4.80;4.00;;;;;;;11.59;45.69;101287.46;105096;1279;97817;-81
2023/05/12 00:44:49;;;;;;;7.10;4.30;;;;;;;11.58;45.60;101284.74;105053;1281;98062;-80
2023/05/12 00:47:36;;;;;;;11.10;4.50;;;;;;;11.58;45.82;101287.97;105050;1277;98080;-80
2023/05/12 00:50:22;;;;;;;6.90;4.30;;;;;;;11.56;46.00;101289.39;104926;1276;102271;-80
2023/05/12 00:53:08;;;;;;;13.10;4.10;;;;;;;11.54;46.06;101291.81;105090;1276;100707;-81
2023/05/12 00:55:54;;;;;;;7.30;3.60;;;;;;;11.51;46.15;101293.77;105030;1275;99043;-81
2023/05/12 00:58:40;;;;;;;9.80;4.50;;;;;;;11.48;46.17;101295.87;105099;1279;98551;-81
2023/05/12 01:01:25;;;;;;;6.00;4.00;;;;;;;11.47;46.24;101296.26;105113;1277;99669;-81
2023/05/12 01:04:13;;;;;;;8.60;4.40;;;;;;;11.45;46.27;101301.99;105076;1279;101374;-81
2023/05/12 01:07:05;;;;;;;8.30;3.80;;;;;;;11.42;46.30;101301.96;104889;1277;99132;-80
2023/05/12 01:09:55;;;;;;;5.20;3.80;;;;;;;11.42;46.25;101303.64;105115;1275;97934;-81
2023/05/12 01:12:41;;;;;;;5.10;3.90;;;;;;;11.40;46.51;101304.16;105054;1281;97902;-81
2023/05/12 01:15:30;;;;;;;7.60;4.40;;;;;;;11.36;46.32;101308.06;105061;1281;98612;-82
2023/05/12 01:18:18;;;;;;;6.90;4.10;;;;;;;11.31;46.59;101307.52;105097;1275;101381;-81
2023/05/12 01:21:05;;;;;;;7.80;3.80;;;;;;;11.29;46.55;101310.27;105107;1277;99319;-81
2023/05/12 01:23:57;;;;;;;6.70;4.10;;;;;;;11.27;46.63;101309.81;104994;1275;97927;-80
2023/05/12 01:26:45;;;;;;;9.10;3.90;;;;;;;11.25;46.63;101307.73;104979;1277;98257;-81
2023/05/12 01:29:31;;;;;;;8.90;3.70;;;;;;;11.23;46.58;101306.35;105048;1277;98442;-80
2023/05/12 01:32:17;;;;;;;5.70;3.90;;;;;;;11.19;46.76;101308.38;105005;1277;102147;-80
2023/05/12 01:35:03;;;;;;;5.20;4.00;;;;;;;11.16;46.53;101310.36;104920;1277;100487;-81
2023/05/12 01:37:51;;;;;;;6.70;4.20;;;;;;;11.11;46.91;101312.85;104997;1275;98075;-81
2023/05/12 01:40:36;;;;;;;11.40;4.10;;;;;;;11.08;46.74;101315.95;105045;1276;97978;-81
2023/05/12 01:43:21;;;;;;;6.00;4.00;;;;;;;11.05;46.94;101314.98;104789;1277;97994;-80
2023/05/12 01:46:07;;;;;;;6.50;3.70;;;;;;;11.03;46.93;101318.08;104871;1276;101485;-81
2023/05/12 01:48:53;;;;;;;11.50;4.60;;;;;;;11.05;47.00;101318.85;104968;1277;100434;-81
2023/05/12 01:51:38;;;;;;;5.30;3.80;;;;;;;11.04;47.11;101321.27;104925;1277;97994;-82
2023/05/12 01:54:24;;;;;;;7.00;4.80;;;;;;;11.01;47.06;101317.98;105086;1276;98058;-82
2023/05/12 01:57:09;;;;;;;5.80;4.30;;;;;;;10.97;47.14;101318.56;105040;1277;98541;-82
2023/05/12 01:59:56;;;;;;;6.90;4.50;;;;;;;10.95;47.35;101319.52;104992;1276;101367;-82
2023/05/12 02:02:42;;;;;;;8.50;4.50;;;;;;;10.95;47.40;101318.11;104773;1277;100329;-81
2023/05/12 02:05:28;;;;;;;7.60;3.80;;;;;;;10.95;47.35;101319.95;104952;1277;98125;-82
2023/05/12 02:08:14;;;;;;;6.00;4.30;;;;;;;10.93;47.35;101320.65;105006;1276;98000;-81
2023/05/12 02:11:04;;;;;;;5.70;3.90;;;;;;;10.91;47.41;101321.87;104961;1276;98446;-80
2023/05/12 02:13:50;;;;;;;7.40;4.50;;;;;;;10.87;47.27;101323.27;104963;1277;102072;-80
2023/05/12 02:16:35;;;;;;;9.30;4.10;;;;;;;10.86;47.48;101319.46;104810;1276;99110;-81
2023/05/12 02:19:21;;;;;;;8.30;3.50;;;;;;;10.85;47.41;101320.61;104840;1279;97994;-81
2023/05/12 02:22:08;;;;;;;5.50;4.70;;;;;;;10.84;47.43;101320.45;104874;1279;97992;-80
2023/05/12 02:24:54;;;;;;;5.60;4.30;;;;;;;10.83;47.63;101322.35;105005;1279;98103;-81
2023/05/12 02:27:40;;;;;;;6.00;3.90;;;;;;;10.81;47.59;101325.20;104887;1276;101391;-82
2023/05/12 02:30:27;;;;;;;5.40;4.20;;;;;;;10.79;47.48;101326.51;105023;1279;99174;-82
2023/05/12 02:33:12;;;;;;;6.00;4.40;;;;;;;10.75;47.66;101327.13;104796;1281;99292;-81
2023/05/12 02:35:58;;;;;;;5.10;4.40;;;;;;;10.73;47.90;101330.23;104772;1277;97886;-80
2023/05/12 02:38:43;;;;;;;7.60;4.60;;;;;;;10.70;47.96;101330.92;104860;1279;98405;-80
2023/05/12 02:41:29;;;;;;;7.30;3.90;;;;;;;10.67;48.05;101331.02;104884;1279;110000;-81
2023/05/12 02:44:16;;;;;;;6.10;4.10;;;;;;;10.66;48.17;101332.46;104908;1276;100416;-81
2023/05/12 02:47:01;;;;;;;6.20;3.60;;;;;;;10.64;48.12;101332.33;104909;1279;97965;-81
2023/05/12 02:49:48;;;;;;;10.50;4.50;;;;;;;10.62;48.21;101337.36;105004;1277;98948;-81
2023/05/12 02:52:33;;;;;;;6.20;4.20;;;;;;;10.59;48.24;101339.30;104909;1276;99744;-80
2023/05/12 02:55:19;;;;;;;6.10;4.10;;;;;;;10.58;48.42;101340.73;104936;1277;101386;-80
2023/05/12 02:58:05;;;;;;;6.80;3.70;;;;;;;10.54;48.51;101343.05;104801;1282;99094;-81
2023/05/12 03:00:50;;;;;;;8.20;3.80;;;;;;;10.51;48.45;101346.81;105023;1277;98526;-81
2023/05/12 03:03:35;;;;;;;6.60;3.80;;;;;;;10.48;48.50;101350.19;104922;1279;98114;-81
2023/05/12 03:06:21;;;;;;;5.20;4.20;;;;;;;10.46;48.72;101349.14;104946;1276;97912;-81
2023/05/12 03:09:06;;;;;;;6.10;3.80;;;;;;;10.42;48.83;101346.61;105026;1276;101371;-81
2023/05/12 03:11:52;;;;;;;5.00;4.10;;;;;;;10.38;49.06;101348.59;104960;1276;99114;-80
2023/05/12 03:14:38;;;;;;;4.10;3.70;;;;;;;10.35;49.26;101350.77;104908;1277;99171;-81
2023/05/12 03:17:24;;;;;;;7.00;3.90;;;;;;;10.28;49.61;101349.98;104900;1277;97924;-81
2023/05/12 03:20:11;;;;;;;7.10;3.90;;;;;;;10.20;49.75;101352.59;104885;1276;98580;-80
2023/05/12 03:22:56;;;;;;;8.60;4.10;;;;;;;10.16;50.22;101354.70;104798;1277;101381;-81
2023/05/12 03:25:42;;;;;;;6.50;4.20;;;;;;;10.12;50.34;101358.29;105089;1279;100041;-81
2023/05/12 03:28:27;;;;;;;5.30;3.70;;;;;;;10.09;50.70;101361.58;104880;1280;98023;-80
2023/05/12 03:31:13;;;;;;;8.00;4.10;;;;;;;10.05;50.78;101361.97;104834;1282;98014;-80
2023/05/12 03:33:58;;;;;;;7.10;4.10;;;;;;;10.01;50.98;101363.66;104797;1281;97873;-81
2023/05/12 03:36:44;;;;;;;6.10;4.50;;;;;;;9.98;50.88;101363.27;104970;1279;102617;-81
2023/05/12 03:39:30;;;;;;;7.40;4.00;;;;;;;9.95;51.20;101365.64;104925;1276;100361;-81
2023/05/12 03:42:16;;;;;;;5.70;4.30;;;;;;;9.91;51.26;101362.14;104839;1277;99080;-80
2023/05/12 03:45:01;;;;;;;6.50;4.20;;;;;;;9.87;51.51;101364.73;104994;1277;98000;-83
2023/05/12 03:47:47;;;;;;;6.70;3.90;;;;;;;9.85;51.83;101369.23;105079;1276;98532;-81
2023/05/12 03:50:32;;;;;;;7.50;4.10;;;;;;;9.85;51.99;101370.63;105154;1277;101428;-81
2023/05/12 03:53:19;;;;;;;6.80;4.30;;;;;;;9.83;52.20;101372.77;105055;1278;99215;-81
2023/05/12 03:56:04;;;;;;;5.10;3.70;;;;;;;9.82;52.29;101374.20;104960;1279;98084;-80
2023/05/12 03:58:51;;;;;;;7.50;4.80;;;;;;;9.81;52.71;101376.73;105199;1276;97968;-80
2023/05/12 04:01:37;;;;;;;8.10;4.00;;;;;;;9.81;52.86;101378.78;104965;1279;97809;-81
2023/05/12 04:04:23;;;;;;;7.00;4.50;;;;;;;9.81;53.23;101381.63;105044;1277;101433;-82
2023/05/12 04:07:08;;;;;;;8.50;4.40;;;;;;;9.83;53.57;101383.54;104967;1276;99882;-82
2023/05/12 04:09:53;;;;;;;6.90;4.50;;;;;;;9.85;53.84;101384.86;104957;1279;99254;-82
2023/05/12 04:12:39;;;;;;;8.10;4.30;;;;;;;9.87;54.09;101385.25;104963;1276;98131;-80
2023/05/12 04:15:24;;;;;;;8.30;4.90;;;;;;;9.89;54.30;101389.77;104827;1276;98519;-81
2023/05/12 04:18:10;;;;;;;5.60;3.90;;;;;;;9.92;54.27;101389.11;104955;1279;102660;-82
2023/05/12 04:20:58;;;;;;;7.70;4.80;;;;;;;9.98;54.41;101391.33;104923;1281;99915;-81
2023/05/12 04:23:43;;;;;;;11.10;4.30;;;;;;;10.03;54.61;101392.73;104925;1277;98068;-82
2023/05/12 04:26:29;;;;;;;7.90;4.50;;;;;;;10.08;54.67;101393.80;105105;1275;97995;-81
2023/05/12 04:29:15;;;;;;;7.50;4.50;;;;;;;10.15;54.93;101393.14;105040;1279;97994;-81
2023/05/12 04:32:01;;;;;;;5.30;3.80;;;;;;;10.19;55.05;101393.18;104848;1283;102033;-80
2023/05/12 04:34:47;;;;;;;4.40;3.90;;;;;;;10.27;55.03;101395.58;105033;1276;107721;-82
2023/05/12 04:37:33;;;;;;;6.80;4.50;;;;;;;10.33;55.01;101393.44;104911;1283;98998;-81
2023/05/12 04:40:18;;;;;;;6.70;4.00;;;;;;;10.40;54.96;101395.93;104863;1277;97936;-81
2023/05/12 04:43:04;;;;;;;5.00;4.20;;;;;;;10.46;54.57;101395.80;105023;1279;98499;-82
2023/05/12 04:45:53;;;;;;;10.70;4.40;;;;;;;10.53;54.89;101398.71;105318;1276;102770;-82
2023/05/12 04:48:40;;;;;;;8.20;4.50;;;;;;;10.61;54.99;101399.25;105089;1277;99117;-83
2023/05/12 04:51:26;;;;;;;9.20;4.00;;;;;;;10.69;55.14;101397.64;104841;1277;98319;-81
2023/05/12 04:54:11;;;;;;;6.50;3.60;;;;;;;10.79;55.20;101401.38;104830;1277;97972;-81
2023/05/12 04:56:57;;;;;;;4.80;3.60;;;;;;;10.89;55.14;101402.85;104768;1280;99425;-82
2023/05/12 04:59:43;;;;;;;7.90;4.80;;;;;;;10.99;55.09;101401.20;104910;1279;102697;-82
2023/05/12 05:02:29;;;;;;;6.00;4.30;;;;;;;11.10;55.08;101399.94;104808;1277;99763;-81
2023/05/12 05:05:15;;;;;;;7.50;4.00;;;;;;;11.23;55.17;101405.23;104760;1277;97759;-82
2023/05/12 05:08:01;;;;;;;11.00;4.20;;;;;;;11.36;55.08;101408.72;104796;1277;97883;-80
2023/05/12 05:10:47;;;;;;;8.90;4.30;;;;;;;11.49;54.16;101407.94;104991;1279;98672;-82
2023/05/12 05:13:33;;;;;;;5.80;3.70;;;;;;;11.63;53.66;101411.04;104809;1276;102123;-81
2023/05/12 05:16:18;;;;;;;6.20;3.50;;;;;;;11.75;53.32;101412.66;104920;1279;100386;-81
2023/05/12 05:19:04;;;;;;;5.00;3.50;;;;;;;11.88;53.01;101413.70;104853;1275;98239;-81
2023/05/12 05:21:50;;;;;;;7.10;3.50;;;;;;;12.00;52.86;101413.85;105024;1279;99279;-81
2023/05/12 05:24:36;;;;;;;4.20;3.20;;;;;;;12.12;52.15;101417.14;104899;1274;98475;-81
2023/05/12 05:27:22;;;;;;;6.30;4.10;;;;;;;12.23;52.19;101419.09;104987;1276;101445;-82
2023/05/12 05:30:08;;;;;;;9.00;3.70;;;;;;;12.34;51.84;101416.87;104943;1277;99124;-81
2023/05/12 05:32:55;;;;;;;6.50;3.50;;;;;;;12.47;51.89;101418.17;104827;1281;97919;-81
2023/05/12 05:35:41;;;;;;;8.90;4.20;;;;;;;12.60;51.35;101417.39;104991;1282;97985;-81
2023/05/12 05:38:28;;;;;;;4.40;3.20;;;;;;;12.73;51.41;101419.79;105016;1278;98190;-82
2023/05/12 05:41:13;;;;;;;10.30;4.10;;;;;;;12.86;51.15;101421.52;104992;1277;101365;-81
2023/05/12 05:43:58;;;;;;;14.30;4.10;;;;;;;12.97;50.55;101422.23;104765;1279;99172;-81
2023/05/12 05:46:43;;;;;;;9.10;3.70;;;;;;;13.09;50.41;101421.58;104754;1279;98097;-82
2023/05/12 05:49:29;;;;;;;8.20;3.60;;;;;;;13.21;50.67;101420.86;104598;1277;99276;-81
2023/05/12 05:52:15;;;;;;;10.30;3.90;;;;;;;13.34;50.20;101419.19;104535;1277;97823;-81
2023/05/12 05:55:02;;;;;;;10.10;4.10;;;;;;;13.44;49.77;101420.55;104488;1277;101385;-81
2023/05/12 05:57:48;;;;;;;11.90;3.70;;;;;;;13.56;49.73;101422.32;104687;1277;100366;-81
2023/05/12 06:00:33;;;;;;;10.70;4.00;;;;;;;13.68;49.94;101426.72;105198;1276;97944;-80
2023/05/12 06:03:18;;;;;;;10.80;4.00;;;;;;;13.81;49.63;101429.21;104745;1277;98011;-81
2023/05/12 06:06:04;;;;;;;7.80;3.50;;;;;;;13.96;49.50;101427.05;104829;1277;98002;-84
2023/05/12 06:08:50;;;;;;;5.20;3.50;;;;;;;14.10;49.54;101427.99;104973;1279;101376;-82
2023/05/12 06:11:35;;;;;;;6.00;3.30;;;;;;;14.24;49.11;101431.65;104985;1277;99117;-81
2023/05/12 06:14:20;;;;;;;6.30;4.20;;;;;;;14.34;48.48;101429.80;104918;1279;98049;-81
2023/05/12 06:17:06;;;;;;;6.90;3.90;;;;;;;14.46;48.90;101431.41;105028;1277;96605;-80
2023/05/12 06:19:51;;;;;;;7.70;4.10;;;;;;;14.59;48.74;101436.98;104914;1276;97980;-81
2023/05/12 06:22:37;;;;;;;4.90;3.30;;;;;;;14.70;48.28;101438.83;104916;1279;101374;-80
2023/05/12 06:25:22;;;;;;;5.30;3.20;;;;;;;14.81;48.13;101442.58;105131;1277;99166;-80
2023/05/12 06:28:08;;;;;;;13.60;3.60;;;;;;;14.92;48.17;101436.83;105008;1282;98515;-81
2023/05/12 06:30:53;;;;;;;8.20;3.10;;;;;;;15.03;47.59;101434.02;104963;1275;98059;-81
2023/05/12 06:33:38;;;;;;;7.60;3.30;;;;;;;15.11;47.18;101434.74;105085;1276;98768;-80
2023/05/12 06:36:24;;;;;;;9.60;3.40;;;;;;;15.19;46.91;101437.88;105088;1276;101383;-80
2023/05/12 06:39:10;;;;;;;10.20;3.90;;;;;;;15.27;47.21;101440.02;104685;1282;100439;-82
2023/05/12 06:41:56;;;;;;;6.50;2.90;;;;;;;15.37;47.10;101437.30;104981;1277;98118;-80
2023/05/12 06:44:41;;;;;;;10.00;3.50;;;;;;;15.44;46.69;101434.42;104986;1281;98090;-80
2023/05/12 06:47:26;;;;;;;9.30;3.20;;;;;;;15.51;45.97;101434.44;105017;1280;97969;-81
2023/05/12 06:50:14;;;;;;;10.60;3.30;;;;;;;15.57;46.01;101436.47;105007;1277;101377;-80
2023/05/12 06:52:59;;;;;;;9.60;3.70;;;;;;;15.65;45.55;101432.27;105040;1279;99127;-81
2023/05/12 06:55:45;;;;;;;9.00;3.80;;;;;;;15.73;45.61;101433.52;105062;1280;99229;-80
2023/05/12 06:58:31;;;;;;;6.50;3.30;;;;;;;15.82;45.34;101435.11;105044;1279;97997;-81
2023/05/12 07:01:17;;;;;;;6.70;3.70;;;;;;;15.89;45.26;101434.47;105162;1277;96345;-84
2023/05/12 07:04:02;;;;;;;10.00;3.00;;;;;;;15.96;45.39;101436.04;105018;1279;101483;-85
2023/05/12 07:06:48;;;;;;;7.10;3.30;;;;;;;16.04;45.29;101434.40;104754;1283;99295;-87
2023/05/12 07:09:34;;;;;;;5.40;3.30;;;;;;;16.14;45.15;101430.91;104887;1279;98564;-88
2023/05/12 07:12:20;;;;;;;5.40;3.10;;;;;;;16.24;44.47;101428.91;104379;1284;97995;-79
2023/05/12 07:15:07;;;;;;;5.30;3.20;;;;;;;16.33;45.07;101432.73;104604;1279;97889;-79
2023/05/12 07:17:54;;;;;;;5.10;3.20;;;;;;;16.43;44.97;101434.82;103876;1280;102668;-78
2023/05/12 07:20:39;;;;;;;11.90;3.30;;;;;;;16.55;44.82;101439.99;103822;1279;100472;-77
2023/05/12 07:23:25;;;;;;;5.50;3.00;;;;;;;16.64;44.17;101438.52;103846;1279;98461;-79
2023/05/12 07:26:10;;;;;;;5.30;2.80;;;;;;;16.72;43.97;101435.65;103835;1279;98023;-79
2023/05/12 07:28:56;;;;;;;13.90;6.30;;;;;;;16.80;43.85;101434.96;104093;1279;97880;-78
2023/05/12 07:31:41;;;;;;;12.90;4.60;;;;;;;16.89;43.63;101437.63;104093;1280;102289;-79
2023/05/12 07:34:27;;;;;;;6.60;2.90;;;;;;;16.99;43.12;101437.92;104069;1279;100237;-80
2023/05/12 07:37:12;;;;;;;4.30;3.00;;;;;;;17.07;42.80;101439.08;103885;1277;98739;-80
2023/05/12 07:39:58;;;;;;;11.00;2.40;;;;;;;17.12;42.42;101436.05;103819;1279;99378;-79
2023/05/12 07:42:43;;;;;;;8.50;3.20;;;;;;;17.15;42.23;101433.79;103980;1290;99803;-77
2023/05/12 07:45:29;;;;;;;9.20;3.00;;;;;;;17.19;42.19;101435.25;103869;1277;101331;-79
2023/05/12 07:48:14;;;;;;;9.90;2.80;;;;;;;17.25;41.94;101434.86;104044;1279;99262;-79
2023/05/12 07:51:00;;;;;;;5.30;2.10;;;;;;;17.34;41.19;101437.27;104076;1277;98805;-79
2023/05/12 07:53:45;;;;;;;5.10;2.60;;;;;;;17.39;41.32;101440.10;104069;1277;97985;-79
2023/05/12 07:56:32;;;;;;;3.70;2.50;;;;;;;17.49;41.85;101442.05;103903;1279;98468;-77
2023/05/12 07:59:17;;;;;;;6.20;2.50;;;;;;;17.57;41.62;101437.80;103998;1282;101431;-78
2023/05/12 08:02:03;;;;;;;8.40;3.60;;;;;;;17.66;41.41;101439.36;103832;1279;99305;-79
2023/05/12 08:04:49;;;;;;;7.50;3.00;;;;;;;17.77;41.01;101440.58;103763;1278;98018;-77
2023/05/12 08:07:35;;;;;;;6.90;3.00;;;;;;;17.84;40.47;101444.18;103871;1280;99161;-79
2023/05/12 08:10:21;;;;;;;5.90;2.90;;;;;;;17.88;40.23;101440.30;103879;1281;97927;-79
2023/05/12 08:13:06;;;;;;;6.40;2.70;;;;;;;17.95;40.10;101438.77;103830;1279;111225;-79
2023/05/12 08:15:52;;;;;;;7.30;2.50;;;;;;;18.01;39.96;101443.21;103779;1279;99112;-77
2023/05/12 08:18:37;;;;;;;6.00;2.50;;;;;;;18.08;39.82;101440.58;103754;1276;97983;-79
2023/05/12 08:21:23;;;;;;;7.30;3.00;;;;;;;18.15;39.92;101437.38;103931;1280;98003;-79
2023/05/12 08:24:08;;;;;;;5.60;2.40;;;;;;;18.22;38.94;101435.19;103857;1276;98532;-79
2023/05/12 08:26:54;;;;;;;3.60;2.80;;;;;;;18.24;38.21;101433.59;103754;1277;102638;-79
2023/05/12 08:29:39;;;;;;;11.50;2.80;;;;;;;18.28;38.37;101433.31;103995;1279;99304;-82
2023/05/12 08:32:25;;;;;;;5.90;2.30;;;;;;;18.34;38.16;101435.66;104677;1277;97862;-84
2023/05/12 08:35:12;;;;;;;7.20;2.50;;;;;;;18.39;37.99;101439.34;104650;1279;98058;-85
2023/05/12 08:38:00;;;;;;;5.70;2.70;;;;;;;18.44;37.87;101432.46;105151;1276;98046;-84
2023/05/12 08:40:59;;;;;;;4.70;2.30;;;;;;;18.51;37.63;101426.48;104764;1283;101372;-86
2023/05/12 08:43:49;;;;;;;5.50;2.50;;;;;;;18.57;37.53;101426.38;104956;1280;100008;-89
2023/05/12 08:46:35;;;;;;;13.90;2.50;;;;;;;18.63;37.29;101425.58;104862;1277;97998;-89
2023/05/12 08:49:25;;;;;;;10.50;2.80;;;;;;;18.72;37.99;101430.52;104983;1282;96590;-88
2023/05/12 08:52:14;;;;;;;5.50;2.20;;;;;;;18.81;37.20;101431.17;104940;1280;97809;-91
2023/05/12 08:55:00;;;;;;;7.60;3.20;;;;;;;18.84;36.54;101431.01;105156;1277;101367;-89
2023/05/12 08:58:01;;;;;;;7.70;2.40;;;;;;;18.86;36.10;101430.91;104698;1277;100364;-88
2023/05/12 09:00:50;;;;;;;8.90;2.80;;;;;;;18.91;36.26;101425.59;104859;1286;99523;-89
2023/05/12 09:03:36;;;;;;;4.80;2.30;;;;;;;18.98;36.41;101429.41;104778;1282;97984;-88
2023/05/12 09:06:22;;;;;;;8.40;2.90;;;;;;;19.03;36.00;101423.54;104539;1280;98101;-83
2023/05/12 09:09:08;;;;;;;8.40;2.60;;;;;;;19.06;35.86;101423.48;104696;1280;102690;-82
2023/05/12 09:11:56;;;;;;;6.20;2.80;;;;;;;19.08;35.20;101433.91;104792;1279;101756;-85
2023/05/12 09:14:45;;;;;;;6.20;2.90;;;;;;;19.12;35.56;101426.11;104745;1286;98033;-83
2023/05/12 09:17:31;;;;;;;6.40;2.80;;;;;;;19.19;35.51;101423.75;104641;1276;98859;-84
2023/05/12 09:20:16;;;;;;;8.40;2.00;;;;;;;19.25;35.01;101422.15;104690;1277;97885;-84
2023/05/12 09:23:16;;;;;;;7.00;2.50;;;;;;;19.28;34.87;101427.93;104777;1279;101412;-90
2023/05/12 09:26:02;;;;;;;10.40;2.80;;;;;;;19.30;34.48;101427.61;104826;1276;100366;-85
2023/05/12 09:28:49;;;;;;;11.10;2.80;;;;;;;19.31;34.65;101425.21;104602;1281;98027;-84
2023/05/12 09:31:36;;;;;;;7.60;2.60;;;;;;;19.37;35.17;101417.42;104580;1279;97937;-89
2023/05/12 09:34:29;;;;;;;6.20;2.70;;;;;;;19.45;34.66;101414.37;104726;1282;97986;-84
2023/05/12 09:37:14;;;;;;;9.70;2.40;;;;;;;19.53;34.89;101414.62;104887;1285;101374;-84
2023/05/12 09:40:01;;;;;;;19.40;3.10;;;;;;;19.60;34.44;101415.27;104773;1277;99201;-87
2023/05/12 09:42:48;;;;;;;15.80;2.80;;;;;;;19.66;34.02;101417.31;105012;1277;98081;-85
2023/05/12 09:45:37;;;;;;;12.70;3.50;;;;;;;19.68;33.37;101419.81;105280;1276;97888;-79
2023/05/12 09:48:22;;;;;;;7.70;3.30;;;;;;;19.65;33.41;101417.70;105031;1282;98462;-80
2023/05/12 09:51:09;;;;;;;5.30;2.90;;;;;;;19.65;33.09;101416.72;105215;1279;101946;-80
2023/05/12 09:53:55;;;;;;;7.30;2.10;;;;;;;19.67;32.98;101414.84;105217;1283;99139;-80
2023/05/12 09:56:41;;;;;;;7.50;2.30;;;;;;;19.69;33.45;101413.59;105218;1277;97988;-80
2023/05/12 09:59:34;;;;;;;5.70;2.30;;;;;;;19.71;33.15;101407.39;105098;1280;97921;-79
2023/05/12 10:02:20;;;;;;;11.10;2.50;;;;;;;19.71;33.25;101412.94;105082;1277;99167;-80
2023/05/12 10:05:17;;;;;;;6.70;2.40;;;;;;;19.77;32.79;101417.52;104966;1282;101442;-80
2023/05/12 10:08:06;;;;;;;6.00;2.30;;;;;;;19.82;32.84;101411.09;105154;1277;99140;-78
2023/05/12 10:10:55;;;;;;;6.30;2.40;;;;;;;19.86;32.45;101416.44;105067;1277;99067;-80
2023/05/12 10:13:41;;;;;;;10.10;2.30;;;;;;;19.89;32.53;101410.60;105100;1280;98612;-80
2023/05/12 10:16:35;;;;;;;9.70;2.40;;;;;;;19.92;33.07;101406.69;106998;1273;96432;-82
2023/05/12 10:19:21;;;;;;;7.30;1.90;;;;;;;19.95;32.18;101405.54;104859;1277;114275;-85
2023/05/12 10:22:09;;;;;;;13.00;2.40;;;;;;;19.93;32.62;101403.59;105643;1279;99164;-79
2023/05/12 10:24:55;;;;;;;4.70;2.20;;;;;;;19.93;32.32;101409.34;105192;1277;98581;-81
2023/05/12 10:27:41;;;;;;;16.60;3.20;;;;;;;19.99;32.29;101404.78;105138;1279;98023;-82
2023/05/12 10:30:27;;;;;;;7.90;3.00;;;;;;;20.08;32.00;101401.16;105012;1277;98468;-81
2023/05/12 10:33:12;;;;;;;5.50;2.80;;;;;;;20.13;31.51;101406.05;104975;1277;102437;-81
2023/05/12 10:35:57;;;;;;;10.40;2.10;;;;;;;20.20;31.59;101403.02;105154;1277;99157;-81
2023/05/12 10:38:48;;;;;;;6.60;2.90;;;;;;;20.25;31.46;101409.95;105037;1282;97966;-82
2023/05/12 10:41:34;;;;;;;11.30;2.30;;;;;;;20.28;31.63;101408.89;104960;1277;98766;-82
2023/05/12 10:44:51;;;;;;;6.20;2.20;;;;;;;20.34;31.60;101406.50;105885;1276;97903;31
2023/05/12 10:47:37;;;;;;;3.40;1.70;;;;;;;20.39;31.20;101401.29;105208;1276;103127;-83
2023/05/12 10:50:27;;;;;;;5.80;2.00;;;;;;;20.37;31.63;101401.02;105085;1276;99195;-79
2023/05/12 10:53:12;;;;;;;7.80;2.20;;;;;;;20.41;31.45;101401.30;105204;1281;99079;-80
2023/05/12 10:56:03;;;;;;;5.80;2.50;;;;;;;20.42;31.31;101398.27;105171;1276;98005;-80
2023/05/12 10:59:11;;;;;;;;;;;;;;;20.45;30.92;101399.52;105578;1277;98032;-80
2023/05/12 11:02:00;;;;;;;6.50;2.30;;;;;;;20.48;30.70;101391.73;105336;1276;102675;-80
2023/05/12 11:04:54;;;;;;;6.00;2.40;;;;;;;20.50;30.92;101390.36;105372;1280;99106;-80
2023/05/12 11:07:48;;;;;;;13.10;2.30;;;;;;;20.57;31.36;101390.01;105302;1276;98029;-80
2023/05/12 11:10:34;;;;;;;9.20;2.80;;;;;;;20.74;31.22;101385.93;105119;1276;98070;-80
2023/05/12 11:13:20;;;;;;;3.90;1.80;;;;;;;20.83;30.82;101388.16;105088;1276;97947;-80
2023/05/12 11:16:05;;;;;;;13.90;2.30;;;;;;;20.84;30.24;101388.09;105123;1276;101371;-80
2023/05/12 11:19:09;;;;;;;9.60;2.50;;;;;;;20.86;30.16;101393.42;105268;1276;100338;-80
2023/05/12 11:21:55;;;;;;;6.90;2.60;;;;;;;20.90;29.64;101389.44;105280;1276;99003;-80
2023/05/12 11:24:41;;;;;;;6.70;2.50;;;;;;;20.91;29.94;101385.05;105245;1276;97948;-81
2023/05/12 11:27:28;;;;;;;3.20;2.40;;;;;;;20.98;30.01;101381.83;105301;1276;98027;-80
2023/05/12 11:30:13;;;;;;;7.90;2.50;;;;;;;21.06;29.58;101379.83;105250;1276;102636;-80
2023/05/12 11:33:02;;;;;;;11.80;3.90;;;;;;;21.11;29.55;101389.88;105103;1277;99119;-80
2023/05/12 11:35:49;;;;;;;7.60;3.50;;;;;;;21.14;29.57;101388.16;105215;1280;99031;-80
2023/05/12 11:38:34;;;;;;;11.60;3.50;;;;;;;21.19;29.67;101392.25;105220;1277;98855;-81
2023/05/12 11:41:25;;;;;;;13.60;2.60;;;;;;;21.27;29.50;101388.71;105180;1276;98655;-80
2023/05/12 11:44:18;;;;;;;9.50;2.90;;;;;;;21.32;28.91;101376.41;105171;1276;101401;-80
2023/05/12 11:47:13;;;;;;;6.60;2.20;;;;;;;21.33;28.72;101376.55;105234;1280;99898;-81
2023/05/12 11:49:59;;;;;;;6.70;1.70;;;;;;;21.33;28.42;101375.56;105145;1279;98747;-80
2023/05/12 11:52:44;;;;;;;6.30;2.40;;;;;;;21.36;28.98;101370.00;105211;1276;98420;-80
2023/05/12 11:55:32;;;;;;;7.40;2.20;;;;;;;21.40;29.02;101384.05;105089;1277;97899;-80
2023/05/12 11:58:26;;;;;;;7.40;2.10;;;;;;;21.47;28.52;101381.70;105240;1276;110184;-79
2023/05/12 12:01:11;;;;;;;5.20;1.80;;;;;;;21.48;28.28;101375.77;105097;1276;99108;-80
2023/05/12 12:03:56;;;;;;;6.20;2.00;;;;;;;21.52;29.06;101376.20;105132;1276;99074;-80
2023/05/12 12:06:44;;;;;;;6.60;2.00;;;;;;;21.58;28.12;101378.46;105154;1280;98023;-80
2023/05/12 12:09:31;;;;;;;4.70;1.90;;;;;;;21.61;27.86;101382.48;105062;1276;98474;-80
2023/05/12 12:12:16;;;;;;;3.90;2.10;;;;;;;21.67;28.18;101377.98;105237;1281;101391;-80
2023/05/12 12:15:02;;;;;;;11.50;2.10;;;;;;;21.77;27.97;101381.40;105088;1276;109760;-80
2023/05/12 12:17:47;;;;;;;5.20;1.80;;;;;;;21.84;27.89;101379.96;105118;1276;97893;-80
2023/05/12 12:20:33;;;;;;;7.80;2.40;;;;;;;21.92;27.94;101377.89;104980;1277;97922;-81
2023/05/12 12:23:19;;;;;;;6.00;2.00;;;;;;;21.94;28.04;101377.29;105019;1276;99595;-80
2023/05/12 12:26:04;;;;;;;7.20;2.50;;;;;;;21.89;27.98;101368.34;105086;1276;101368;-80
2023/05/12 12:28:49;;;;;;;8.00;2.60;;;;;;;21.87;27.88;101374.95;104981;1276;99132;-79
2023/05/12 12:31:35;;;;;;;5.80;2.80;;;;;;;21.86;27.74;101377.27;105065;1276;98420;-80
2023/05/12 12:34:20;;;;;;;8.50;2.20;;;;;;;21.86;27.52;101378.52;105088;1276;98008;-81
2023/05/12 12:37:07;;;;;;;4.00;2.10;;;;;;;21.87;27.67;101381.23;105049;1276;97382;-80
2023/05/12 12:39:53;;;;;;;9.30;2.20;;;;;;;21.91;27.59;101374.20;105030;1276;101363;-79
2023/05/12 12:42:40;;;;;;;10.60;2.80;;;;;;;21.96;27.54;101372.33;105041;1282;100061;-80